Quincy, IL

6:39 PM CST on November 26, 2014 (GMT -0600)
Adams County Emergency Management | Change Station
CLOSE
Current Station
Personal Weather Station
Location: Quincy, IL
Elevation: 725 ft
Nearby Weather Stations

Elev 725 ft 39.93 °N, 91.33 °W | Updated 2 seconds ago

Overcast
Overcast
32.4 °F
Feels Like 32 °F
N
0.0
Wind Variable Wind from NNE
Gusts 0.0 mph

Today
High -- | Low -- °F
--% Chance of Precip.
Yesterday
High -- | Low -- °F
Precip. -- in
7:02 AM 4:42 PM
Waxing Crescent, 24% visible
Pressure 30.07 in
Visibility 4.0 miles
Clouds Overcast 600 ft
Windchill 32 °F
Dew Point 31 °F
Humidity 93%
Rainfall 0.04 in
Snow Depth Not available.
UV 0 out of 12
Pollen .10 out of 12
Air Quality Not available.
Flu Activity Not available.
METAR KUIN 262354Z AUTO 07008KT 4SM BR OVC006 00/M01 A3005 RMK AO2 SLP183 60003 I6004 T00001011 10000 21006 53022

More Conditions Fewer Conditions

Pressure 30.07 in
Visibility 4.0 miles
Clouds Overcast 600 ft
Windchill 32 °F
Dew Point 31 °F
Humidity 93%
Rainfall 0.04 in
Snow Depth Not available.
UV 0 out of 12
Pollen .10 out of 12
Air Quality Not available.
Flu Activity Not available.
METAR KUIN 262354Z AUTO 07008KT 4SM BR OVC006 00/M01 A3005 RMK AO2 SLP183 60003 I6004 T00001011 10000 21006 53022

More Conditions Fewer Conditions

10-Day Weather Forecast

Almanac

Astronomy

Nov. 26, 2014 Rise Set
Actual Time
Civil Twilight
Nautical Twilight
Astronomical Twilight
Moon
Length of Visible Light
Length of Day
Tomorrow will be .
, % of the Moon is Illuminated

Today's Extremes

State Highs State Lows

Community

WunderPhotos

Upload Photos

1,773,930 photos uploaded!

WunderBlogs® & News

Nearby

Air Quality

  Air Quality AQ Index Pollutant
Not available.

Snow Depth

Station Depth Elevation

Earthquake Activity

City Distance Mag. Time & Date
Minimum magnitude displayed is 2.5.

Coastal Water Temperatures

Place Temperature

Nearby Weather Stations